Terminal Aerodrome Forecast
Issued by NWS

Home | Current Version | Previous Version | Text Only | Print | Product List | Glossary On
Versions: 1 2 3 4 5 6 7 8 9 10 11 12 13 14 15
000
FTUS43 KTOP 282300
TAFMHK
TAF
KMHK 282320Z 0100/0124 16005KT 6SM BR BKN025
     FM010500 19005KT 2SM -SN BKN020 OVC035
     FM011100 27005KT P6SM SCT015 BKN030
     FM011700 30004KT P6SM BKN035=

USA.gov is the U.S. government's official web portal to all federal, state and local government web resources and services.